Latest Weather Observations for Gabo Island

IDN60801

Issued at 3:03 pm EST Tuesday 28 April 2015 (issued every 30 minutes, with the page automatically refreshed every 10 minutes)

About weather observations | Map of weather stations | Latest weather observations for NSW | Other Formats
Station Details ID: 084016 Name: GABO ISLAND LIGHTHOUSE Lat: -37.57 Lon: 149.92 Height: 15.2 m
Data from the previous 72 hours. | See also: Recent months at Gabo Island
Date/Time
EST
Temp
°C
App
Temp
°C
Dew
Point
Rel
Hum
%
Delta-T
°C
Wind Press
QNH
hPa
Press
MSL
hPa
Rain
since 9 am
mm
Dir
 
Spd
km/h
Gust
km/h
Spd
kts
Gust
kts
28/03:00pm 15.6 9.3 9.1 65 3.3 WSW 32 39 17 21 1026.3 1026.3 0.0
28/02:30pm 15.8 9.4 8.7 62 3.6 WSW 32 39 17 21 1026.3 - 0.0
28/02:00pm 16.3 10.4 9.1 62 3.7 WSW 30 39 16 21 1026.1 - 0.0
28/01:30pm 16.3 11.2 9.3 63 3.6 WSW 26 33 14 18 1026.2 - 0.0
28/01:00pm 16.7 11.1 8.9 60 4.0 WSW 28 35 15 19 1026.4 - 0.0
28/12:30pm 16.4 11.4 9.4 63 3.6 WSW 26 35 14 19 1026.6 - 0.0
28/12:00pm 16.4 11.3 9.2 62 3.7 WSW 26 35 14 19 1026.8 1026.9 0.0
28/11:30am 16.0 10.7 9.8 66 3.2 WSW 28 35 15 19 1027.1 - 0.0
28/11:00am 15.7 10.4 9.9 68 3.0 W 28 35 15 19 1027.1 - 0.0
28/10:30am 15.1 9.4 9.7 70 2.8 W 30 37 16 20 1027.0 - 0.0
28/10:00am 14.4 8.6 9.5 72 2.5 W 30 35 16 19 1027.0 - 0.0
28/09:30am 14.2 8.1 9.7 74 2.3 W 32 39 17 21 1026.9 - 0.0
28/09:00am 12.8 7.2 8.8 76 2.0 W 28 35 15 19 1026.8 1026.7 0.6
28/08:30am 13.4 7.1 9.0 75 2.2 W 32 41 17 22 1026.5 - 0.6
28/08:00am 13.4 6.7 9.5 77 2.0 W 35 44 19 24 1026.1 - 0.6
28/07:30am 12.7 5.9 9.1 79 1.8 W 35 43 19 23 1025.8 - 0.6
28/07:00am 12.5 5.6 8.9 79 1.8 W 35 43 19 23 1025.5 - 0.6
28/06:30am 12.2 5.4 9.2 82 1.5 W 35 43 19 23 1024.9 - 0.6
28/06:00am 12.2 5.8 9.4 83 1.4 W 33 44 18 24 1024.5 1024.5 0.6
28/05:30am 12.4 5.2 9.2 81 1.6 W 37 46 20 25 1024.2 - 0.6
28/05:00am 12.4 4.8 9.2 81 1.6 W 39 48 21 26 1023.9 - 0.6
28/04:30am 12.2 5.0 9.2 82 1.5 W 37 48 20 26 1023.6 - 0.6
28/04:00am 12.4 6.2 10.0 85 1.2 W 33 41 18 22 1023.2 - 0.6
28/03:30am 12.1 6.0 9.7 85 1.2 W 32 41 17 22 1023.1 - 0.6
28/03:00am 12.1 6.4 9.7 85 1.2 W 30 41 16 22 1023.1 1023.2 0.6
28/02:30am 12.3 6.2 10.4 88 1.0 W 33 43 18 23 1023.2 - 0.4
28/02:00am 12.2 4.9 10.2 87 1.0 W 39 44 21 24 1023.0 - 0.4
28/01:30am 12.3 7.2 10.6 89 0.9 W 28 35 15 19 1023.3 - 0.4
28/01:00am 12.5 6.6 10.6 88 1.0 W 32 39 17 21 1023.2 - 0.4
28/12:30am 12.3 7.1 10.4 88 1.0 W 28 35 15 19 1023.0 - 0.4
28/12:00am 12.6 7.1 10.7 88 1.0 W 30 39 16 21 1022.9 1022.9 0.4
 
Date/Time
EST
Temp
°C
App
Temp
°C
Dew
Point
Rel
Hum
%
Delta-T
°C
Wind Press
QNH
hPa
Press
MSL
hPa
Rain
since 9 am
mm
Dir
 
Spd
km/h
Gust
km/h
Spd
kts
Gust
kts
27/11:30pm 12.4 7.6 10.3 87 1.1 W 26 35 14 19 1022.8 - 0.4
27/11:00pm 13.0 6.9 10.5 85 1.3 W 33 43 18 23 1022.6 - 0.4
27/10:30pm 13.2 7.2 10.1 81 1.6 W 32 39 17 21 1022.6 - 0.4
27/10:00pm 13.4 5.8 9.2 76 2.1 WSW 39 46 21 25 1022.6 - 0.4
27/09:30pm 13.2 5.9 10.1 81 1.6 WSW 39 61 21 33 1022.5 - 0.0
27/09:28pm 13.3 6.7 10.0 80 1.7 WSW 35 61 19 33 1022.5 - 0.0
27/09:00pm 13.9 7.4 10.2 78 1.9 WSW 35 43 19 23 1022.3 1022.2 0.0
27/08:30pm 13.4 7.3 10.3 81 1.6 W 33 39 18 21 1022.1 - 0.0
27/08:00pm 13.5 7.3 10.0 79 1.8 WSW 33 43 18 23 1021.9 - 0.0
27/07:30pm 13.2 7.0 10.1 81 1.6 W 33 43 18 23 1021.5 - 0.0
27/07:00pm 13.6 6.3 10.3 80 1.7 W 39 46 21 25 1021.2 - 0.0
27/06:30pm 13.6 7.4 10.1 79 1.8 W 33 41 18 22 1021.0 - 0.0
27/06:00pm 13.7 7.7 10.2 79 1.8 W 32 43 17 23 1020.6 1020.5 0.0
27/05:30pm 13.9 7.0 10.2 78 1.9 W 37 44 20 24 1020.3 - 0.0
27/05:00pm 14.0 7.4 10.1 77 2.0 W 35 44 19 24 1019.9 - 0.0
27/04:30pm 14.3 6.6 10.3 77 2.1 WSW 41 54 22 29 1019.6 - 0.0
27/04:00pm 14.6 7.2 10.0 74 2.4 WSW 39 48 21 26 1019.2 - 0.0
27/03:30pm 14.7 7.0 10.1 74 2.4 WSW 41 52 22 28 1019.0 - 0.0
27/03:00pm 15.0 6.4 10.2 73 2.5 WSW 46 57 25 31 1018.7 1018.7 0.0
27/02:30pm 15.4 7.3 10.7 73 2.5 WSW 44 54 24 29 1018.5 - 0.0
27/02:00pm 15.1 6.6 9.2 68 3.0 WSW 44 57 24 31 1018.3 - 0.0
27/01:30pm 15.4 7.0 9.8 69 2.9 WSW 44 57 24 31 1018.1 - 0.0
27/01:00pm 15.3 6.9 9.7 69 2.9 WSW 44 57 24 31 1018.0 - 0.0
27/12:30pm 15.4 7.1 10.0 70 2.8 WSW 44 65 24 35 1018.1 - 0.0
27/12:29pm 15.3 7.0 9.9 70 2.8 WSW 44 65 24 35 1018.1 - 0.0
27/12:00pm 15.2 7.1 10.2 72 2.6 W 43 50 23 27 1018.4 1018.5 0.0
27/11:30am 14.7 6.4 10.1 74 2.4 WSW 44 54 24 29 1018.5 - 0.0
27/11:00am 13.8 6.3 10.9 83 1.5 WSW 41 54 22 29 1018.6 - 0.0
27/10:30am 13.7 6.2 10.8 83 1.5 WSW 41 52 22 28 1018.5 - 0.0
27/10:00am 14.2 6.1 10.2 77 2.1 W 43 52 23 28 1018.4 - 0.0
27/09:30am 14.0 6.9 10.8 81 1.7 W 39 48 21 26 1018.2 - 0.0
27/09:00am 13.7 6.0 10.2 79 1.8 W 41 57 22 31 1017.8 1017.7 3.6
27/08:30am 13.3 4.3 10.2 81 1.6 W 48 57 26 31 1017.5 - 3.6
27/08:00am 12.7 5.1 10.4 86 1.2 W 41 52 22 28 1017.2 - 3.6
27/07:30am 12.6 4.5 10.1 85 1.3 W 43 54 23 29 1016.7 - 3.6
27/07:00am 12.4 4.4 10.3 87 1.1 W 43 52 23 28 1016.5 - 3.6
27/06:30am 12.0 4.3 10.0 87 1.0 W 41 52 22 28 1016.1 - 3.6
27/06:00am 12.1 4.0 9.9 86 1.1 W 43 57 23 31 1016.0 1015.9 3.6
27/05:30am 11.9 4.2 10.1 89 0.9 W 41 52 22 28 1015.7 - 3.6
27/05:00am 11.7 3.5 9.7 87 1.0 W 43 56 23 30 1015.5 - 3.6
27/04:30am 11.7 3.4 9.9 89 0.9 W 44 56 24 30 1015.3 - 3.4
27/04:00am 11.7 3.5 9.7 87 1.0 W 43 57 23 31 1015.1 - 2.8
27/03:30am 11.9 3.6 9.3 84 1.3 W 43 52 23 28 1015.0 - 2.6
27/03:02am 12.2 3.7 9.4 83 1.4 W 44 63 24 34 1015.0 - 2.4
27/03:00am 12.1 3.8 9.3 83 1.4 W 43 63 23 34 1015.0 1014.9 2.4
27/02:59am 12.0 3.4 8.8 81 1.6 W 44 63 24 34 1014.9 - 2.4
27/02:30am 12.1 3.7 9.1 82 1.5 W 43 54 23 29 1015.0 - 2.4
27/02:00am 12.0 3.0 9.0 82 1.5 W 46 59 25 32 1015.1 - 2.4
27/01:30am 12.1 4.1 9.1 82 1.5 W 41 52 22 28 1015.3 - 2.4
27/01:00am 12.2 3.2 8.8 80 1.7 W 46 57 25 31 1015.4 - 2.4
27/12:30am 12.4 3.5 9.2 81 1.6 W 46 61 25 33 1015.2 - 2.4
27/12:00am 12.4 2.4 9.2 81 1.6 W 52 63 28 34 1015.2 1015.2 2.4
 
Date/Time
EST
Temp
°C
App
Temp
°C
Dew
Point
Rel
Hum
%
Delta-T
°C
Wind Press
QNH
hPa
Press
MSL
hPa
Rain
since 9 am
mm
Dir
 
Spd
km/h
Gust
km/h
Spd
kts
Gust
kts
26/11:30pm 12.3 2.6 9.1 81 1.6 W 50 67 27 36 1015.0 - 2.4
26/11:00pm 12.3 4.1 10.4 88 1.0 W 44 56 24 30 1015.4 - 2.4
26/10:30pm 12.2 4.5 10.1 87 1.1 W 41 52 22 28 1015.5 - 2.4
26/10:00pm 12.2 2.8 10.1 87 1.1 W 50 61 27 33 1015.5 - 2.4
26/09:30pm 12.6 3.9 10.1 85 1.3 W 46 61 25 33 1015.4 - 2.4
26/09:00pm 12.8 4.6 10.3 85 1.3 W 44 52 24 28 1015.8 1015.8 2.4
26/08:30pm 12.5 3.9 10.4 87 1.1 WSW 46 59 25 32 1015.5 - 2.4
26/08:00pm 13.2 5.8 9.7 79 1.8 W 39 56 21 30 1015.0 - 2.4
26/07:58pm 13.1 6.0 9.6 79 1.8 W 37 56 20 30 1015.0 - 2.4
26/07:30pm 13.0 5.4 9.2 78 1.9 W 39 50 21 27 1014.8 - 2.4
26/07:00pm 13.6 5.7 9.5 76 2.1 W 41 54 22 29 1014.7 - 2.4
26/06:30pm 13.5 5.7 9.8 78 1.9 W 41 52 22 28 1014.5 - 2.4
26/06:00pm 13.5 6.1 10.0 79 1.8 W 39 50 21 27 1014.3 1014.2 2.4
26/05:30pm 13.6 4.1 9.7 77 2.0 WSW 50 61 27 33 1013.7 - 2.4
26/05:00pm 13.5 3.4 10.4 81 1.6 WSW 54 65 29 35 1013.3 - 2.4
26/04:30pm 13.8 4.6 9.5 75 2.2 W 48 59 26 32 1013.1 - 2.4
26/04:03pm 13.8 4.9 9.1 73 2.4 W 46 65 25 35 1012.9 - 2.4
26/04:00pm 13.8 5.4 9.5 75 2.2 W 44 57 24 31 1012.8 - 2.4
26/03:30pm 13.7 4.0 9.2 74 2.3 W 50 69 27 37 1012.6 - 2.4
26/03:25pm 13.6 3.9 9.1 74 2.3 WSW 50 69 27 37 1012.6 - 2.4
26/03:00pm 13.9 3.7 10.0 77 2.0 WSW 54 67 29 36 1012.4 1012.3 2.4
26/02:32pm 14.1 4.8 10.7 80 1.8 WSW 50 69 27 37 1012.2 - 2.4
26/02:30pm 14.1 4.4 10.5 79 1.9 WSW 52 69 28 37 1012.1 - 2.4
26/02:24pm 13.7 4.4 10.4 80 1.7 WSW 50 69 27 37 1012.2 - 2.4
26/02:00pm 13.8 4.3 11.0 83 1.5 WSW 52 65 28 35 1012.0 - 2.4
26/01:30pm 13.8 3.6 11.4 85 1.3 WSW 56 67 30 36 1011.5 - 2.4
26/01:00pm 13.9 4.8 12.6 92 0.7 WSW 52 65 28 35 1011.5 - 2.0
26/12:30pm 14.6 7.8 13.2 91 0.8 WSW 41 54 22 29 1011.5 - 0.6
26/12:00pm 16.3 8.5 11.3 72 2.7 SW 43 52 23 28 1011.2 1011.2 0.0
26/11:53am 16.2 8.3 11.6 74 2.5 SW 44 52 24 28 1011.2 - 0.0
26/11:30am 17.3 10.0 11.6 69 3.1 SSW 41 50 22 27 1011.2 - 0.0
26/11:00am 17.5 10.4 10.8 65 3.6 S 39 48 21 26 1011.2 - 0.0
26/10:30am 17.5 9.1 11.0 65 3.5 S 46 54 25 29 1011.1 - 0.0
26/10:00am 17.3 9.8 12.0 71 2.9 SSW 43 52 23 28 1010.9 - 0.0
26/09:30am 17.1 9.5 12.4 74 2.6 S 44 52 24 28 1010.8 - 0.0
26/09:00am 16.5 9.5 13.7 83 1.6 S 43 50 23 27 1010.6 1010.6 10.2
26/08:30am 16.0 8.4 13.7 86 1.3 S 46 63 25 34 1010.3 - 10.2
26/08:08am 14.8 8.3 14.1 96 0.4 S 41 59 22 32 1010.1 - 10.0
26/08:00am 16.3 9.2 14.0 86 1.3 S 44 54 24 29 1009.9 - 9.2
26/07:30am 16.2 9.7 14.1 87 1.2 S 41 54 22 29 1009.6 - 9.2
26/07:00am 16.1 8.3 14.0 87 1.2 S 48 57 26 31 1009.0 - 9.2
26/06:30am 16.2 8.7 13.9 86 1.3 S 46 56 25 30 1008.3 - 9.2
26/06:00am 15.9 9.1 14.3 90 0.9 S 43 54 23 29 1007.9 1007.9 9.2
26/05:30am 15.9 8.3 14.7 93 0.7 S 48 57 26 31 1007.6 - 9.0
26/05:07am 16.2 8.9 14.5 90 1.0 S 46 65 25 35 1007.4 - 6.4
26/05:00am 16.2 9.9 14.5 90 1.0 S 41 48 22 26 1007.3 - 6.4
26/04:50am 16.1 9.7 14.2 88 1.1 S 41 44 22 24 1007.2 - 6.4
26/04:30am 13.8 11.0 13.1 96 0.4 W 20 43 11 23 1007.3 - 6.4
26/04:00am 13.7 7.2 13.0 96 0.4 W 39 46 21 25 1007.2 - 4.2
26/03:30am 13.8 7.7 12.9 94 0.5 W 37 46 20 25 1007.2 - 3.4
26/03:00am 14.3 7.5 13.0 92 0.7 WSW 41 50 22 27 1007.5 1007.5 1.8
26/02:30am 14.3 8.5 12.8 91 0.8 WSW 35 46 19 25 1007.5 - 0.8
26/02:00am 14.0 8.4 12.2 89 1.0 W 33 43 18 23 1007.7 - 0.6
26/01:30am 14.0 8.4 12.2 89 1.0 W 33 43 18 23 1007.8 - 0.6
26/01:00am 14.3 8.9 12.7 90 0.9 WSW 33 43 18 23 1007.9 - 0.6
26/12:30am 14.2 9.0 12.9 92 0.7 WSW 32 37 17 20 1007.9 - 0.6
26/12:00am 14.3 9.9 12.8 91 0.8 W 28 35 15 19 1007.9 1008.0 0.6
 
Date/Time
EST
Temp
°C
App
Temp
°C
Dew
Point
Rel
Hum
%
Delta-T
°C
Wind Press
QNH
hPa
Press
MSL
hPa
Rain
since 9 am
mm
Dir
 
Spd
km/h
Gust
km/h
Spd
kts
Gust
kts
25/11:30pm 13.7 9.9 13.5 99 0.1 W 26 30 14 16 1008.2 - 0.6
25/11:00pm 14.2 9.9 13.3 94 0.5 W 28 35 15 19 1008.5 - 0.6
25/10:30pm 14.1 10.9 13.2 94 0.5 W 22 30 12 16 1008.6 - 0.6
25/10:00pm 14.1 11.2 13.0 93 0.6 W 20 30 11 16 1008.9 - 0.6
25/09:30pm 14.2 11.1 13.3 94 0.5 WNW 22 30 12 16 1008.8 - 0.6
25/09:00pm 14.6 11.1 13.3 92 0.7 W 24 32 13 17 1008.4 1008.5 0.4
25/08:30pm 14.5 11.6 12.9 90 0.9 W 20 26 11 14 1008.7 - 0.0
25/08:00pm 14.4 11.0 12.6 89 1.0 W 22 26 12 14 1008.6 - 0.0
25/07:30pm 14.3 11.5 12.5 89 1.0 WNW 19 24 10 13 1008.7 - 0.0
25/07:00pm 14.7 11.3 12.5 87 1.2 W 22 30 12 16 1008.7 - 0.0
25/06:30pm 16.0 12.5 13.5 85 1.4 SW 24 30 13 16 1008.3 - 0.0
25/06:00pm 15.8 12.0 12.3 80 1.9 WSW 24 28 13 15 1008.0 1007.9 0.0
25/05:30pm 16.0 11.9 12.8 81 1.8 WSW 26 33 14 18 1007.5 - 0.0
25/05:00pm 15.9 9.4 12.8 82 1.7 WSW 39 46 21 25 1007.3 - 0.0
25/04:30pm 16.9 9.7 13.2 79 2.1 SW 43 50 23 27 1007.0 - 0.0
25/04:00pm 17.5 13.5 14.2 81 1.9 SSW 28 32 15 17 1007.0 - 0.0
25/03:30pm 17.5 14.0 14.4 82 1.8 SSW 26 32 14 17 1007.0 - 0.0

Other Formats:

Comma delimited format used in spreadsheet applications
http://www.bom.gov.au/fwo/IDN60801/IDN60801.94933.axf

JavaScript Object Notation format (JSON) in row-major order
http://www.bom.gov.au/fwo/IDN60801/IDN60801.94933.json